JA995A RJTT-RJTT
Flight info
| Callsign | JA995A |
|---|---|
| Flight time | 0h 7m |
| Altitude | 700 |
| Route | RJTT/RJTT |
| Aircraft | EC45/L-SDG/L |
Departure
| Time | 2026-02-17 03:51 |
|---|---|
| Airport | Tokyo Haneda International Airport (RJTT) |
Arrival
| Time | 2026-02-17 03:59 |
|---|---|
| Airport | Tokyo Haneda International Airport (RJTT) |
| Time | Latitude | Longitude | Altitude | Speed | Heading |
|---|---|---|---|---|---|
| 2026-02-17 03:46 | 35.55735 | 139.75427 | 19 ft | 0 kts | 279° |
| 2026-02-17 03:49 | 35.55740 | 139.75424 | 27 ft | 3 kts | 6° |
| 2026-02-17 03:49 | 35.55773 | 139.75434 | 31 ft | 5 kts | 11° |
| 2026-02-17 03:49 | 35.55824 | 139.75451 | 31 ft | 7 kts | 17° |
| 2026-02-17 03:50 | 35.55846 | 139.75463 | 26 ft | 3 kts | 45° |
| 2026-02-17 03:50 | 35.55876 | 139.75508 | 30 ft | 11 kts | 60° |
| 2026-02-17 03:50 | 35.55891 | 139.75580 | 36 ft | 7 kts | 10° |
| 2026-02-17 03:51 | 35.55927 | 139.75237 | 345 ft | 70 kts | 184° |
| 2026-02-17 03:51 | 35.55338 | 139.75006 | 429 ft | 105 kts | 201° |
| 2026-02-17 03:51 | 35.54621 | 139.74592 | 507 ft | 115 kts | 204° |
| 2026-02-17 03:51 | 35.53907 | 139.74216 | 675 ft | 111 kts | 196° |
| 2026-02-17 03:52 | 35.53157 | 139.73952 | 797 ft | 113 kts | 189° |
| 2026-02-17 03:52 | 35.52385 | 139.73776 | 899 ft | 113 kts | 187° |
| 2026-02-17 03:52 | 35.51669 | 139.73447 | 924 ft | 106 kts | 208° |
| 2026-02-17 03:52 | 35.51136 | 139.72876 | 982 ft | 98 kts | 226° |
| 2026-02-17 03:53 | 35.50671 | 139.72294 | 1072 ft | 93 kts | 224° |
| 2026-02-17 03:53 | 35.50202 | 139.71777 | 1162 ft | 90 kts | 219° |
| 2026-02-17 03:53 | 35.49689 | 139.71296 | 1170 ft | 93 kts | 211° |
| 2026-02-17 03:53 | 35.49092 | 139.71040 | 1191 ft | 92 kts | 200° |
| 2026-02-17 03:54 | 35.48578 | 139.70552 | 1093 ft | 95 kts | 225° |
| 2026-02-17 03:54 | 35.48097 | 139.69953 | 989 ft | 99 kts | 214° |
| 2026-02-17 03:54 | 35.47433 | 139.69797 | 929 ft | 101 kts | 167° |
| 2026-02-17 03:55 | 35.46225 | 139.70613 | 872 ft | 103 kts | 121° |
| 2026-02-17 03:55 | 35.45899 | 139.71408 | 783 ft | 107 kts | 98° |
| 2026-02-17 03:55 | 35.45799 | 139.72321 | 680 ft | 114 kts | 87° |
| 2026-02-17 03:55 | 35.45788 | 139.73291 | 664 ft | 115 kts | 84° |
| 2026-02-17 03:56 | 35.45796 | 139.74271 | 673 ft | 115 kts | 83° |
| 2026-02-17 03:56 | 35.45811 | 139.75232 | 676 ft | 110 kts | 82° |
| 2026-02-17 03:56 | 35.45810 | 139.76175 | 667 ft | 113 kts | 84° |
| 2026-02-17 03:56 | 35.45807 | 139.77138 | 680 ft | 111 kts | 82° |
| 2026-02-17 03:57 | 35.45794 | 139.77979 | 703 ft | 90 kts | 83° |
| 2026-02-17 03:57 | 35.45794 | 139.78786 | 669 ft | 97 kts | 82° |
| 2026-02-17 03:57 | 35.45787 | 139.79556 | 678 ft | 87 kts | 88° |
| 2026-02-17 03:57 | 35.45793 | 139.80318 | 590 ft | 90 kts | 87° |
| 2026-02-17 03:58 | 35.45797 | 139.81036 | 542 ft | 73 kts | 92° |
| 2026-02-17 03:58 | 35.45865 | 139.81579 | 449 ft | 62 kts | 92° |
| 2026-02-17 03:58 | 35.45939 | 139.82163 | 477 ft | 71 kts | 84° |
| 2026-02-17 03:59 | 35.46114 | 139.83153 | 192 ft | 41 kts | 90° |
| 2026-02-17 03:59 | 35.46054 | 139.83399 | 112 ft | 26 kts | 142° |
| 2026-02-17 03:59 | 35.45896 | 139.83487 | 73 ft | 24 kts | 171° |
| 2026-02-17 03:59 | 35.45874 | 139.83428 | 57 ft | 14 kts | 347° |
| 2026-02-17 04:00 | 35.45953 | 139.83430 | 58 ft | 7 kts | 333° |
| 2026-02-17 04:00 | 35.45995 | 139.83426 | 51 ft | 7 kts | 334° |
| 2026-02-17 04:00 | 35.46003 | 139.83420 | 38 ft | 0 kts | 330° |
| 2026-02-17 04:01 | 35.46132 | 139.83352 | 257 ft | 38 kts | 345° |
| 2026-02-17 04:01 | 35.46293 | 139.82926 | 303 ft | 75 kts | 278° |
| 2026-02-17 04:01 | 35.46368 | 139.82225 | 331 ft | 88 kts | 279° |
| 2026-02-17 04:02 | 35.46683 | 139.81872 | 331 ft | 71 kts | 29° |
| 2026-02-17 04:02 | 35.46736 | 139.82500 | 302 ft | 83 kts | 104° |
| 2026-02-17 04:02 | 35.46512 | 139.83109 | 231 ft | 72 kts | 114° |
| 2026-02-17 04:03 | 35.46203 | 139.83808 | 158 ft | 32 kts | 110° |
| 2026-02-17 04:03 | 35.46083 | 139.84021 | 155 ft | 27 kts | 162° |
| 2026-02-17 04:03 | 35.45996 | 139.83942 | 152 ft | 17 kts | 332° |
| 2026-02-17 04:03 | 35.46103 | 139.83867 | 109 ft | 17 kts | 319° |
| 2026-02-17 04:04 | 35.46151 | 139.83828 | 20 ft | 2 kts | 315° |
| 2026-02-17 04:04 | 35.46127 | 139.83846 | 59 ft | 1 kts | 323° |
| 2026-02-17 04:04 | 35.46137 | 139.83842 | 61 ft | 4 kts | 320° |
| 2026-02-17 04:04 | 35.46140 | 139.83840 | 59 ft | 3 kts | 313° |
| 2026-02-17 04:05 | 35.46145 | 139.83837 | 70 ft | 1 kts | 313° |
| 2026-02-17 04:05 | 35.46148 | 139.83834 | 69 ft | 0 kts | 313° |
| 2026-02-17 04:05 | 35.46149 | 139.83835 | 70 ft | 0 kts | 314° |
| 2026-02-17 04:06 | 35.46149 | 139.83834 | 71 ft | 0 kts | 314° |
| 2026-02-17 04:08 | 35.46150 | 139.83835 | 52 ft | 0 kts | 314° |
| 2026-02-17 04:08 | 35.46152 | 139.83804 | 58 ft | 12 kts | 303° |
| 2026-02-17 04:08 | 35.46169 | 139.83757 | 60 ft | 3 kts | 299° |
| 2026-02-17 04:08 | 35.46201 | 139.83666 | 145 ft | 25 kts | 303° |
| 2026-02-17 04:09 | 35.46265 | 139.83309 | 290 ft | 59 kts | 288° |
| 2026-02-17 04:09 | 35.46310 | 139.82716 | 394 ft | 80 kts | 271° |
| 2026-02-17 04:09 | 35.46283 | 139.81967 | 395 ft | 94 kts | 265° |
| 2026-02-17 04:09 | 35.46233 | 139.81183 | 465 ft | 88 kts | 266° |
| 2026-02-17 04:10 | 35.46186 | 139.80463 | 612 ft | 82 kts | 272° |
| 2026-02-17 04:10 | 35.46153 | 139.79790 | 606 ft | 75 kts | 277° |
| 2026-02-17 04:10 | 35.46213 | 139.79158 | 591 ft | 76 kts | 289° |
| 2026-02-17 04:11 | 35.46602 | 139.77887 | 549 ft | 80 kts | 297° |
| 2026-02-17 04:11 | 35.46785 | 139.77263 | 610 ft | 76 kts | 281° |
| 2026-02-17 04:11 | 35.47086 | 139.76011 | 690 ft | 78 kts | 300° |
| 2026-02-17 04:12 | 35.47341 | 139.75408 | 685 ft | 81 kts | 310° |
| 2026-02-17 04:12 | 35.47712 | 139.74893 | 699 ft | 80 kts | 322° |
| 2026-02-17 04:12 | 35.48122 | 139.74434 | 762 ft | 84 kts | 317° |
| 2026-02-17 04:12 | 35.48655 | 139.74051 | 698 ft | 94 kts | 337° |
| 2026-02-17 04:13 | 35.49301 | 139.73759 | 624 ft | 103 kts | 341° |
| 2026-02-17 04:13 | 35.49979 | 139.73444 | 592 ft | 106 kts | 339° |
| 2026-02-17 04:13 | 35.50693 | 139.73201 | 542 ft | 106 kts | 349° |
| 2026-02-17 04:13 | 35.51350 | 139.72886 | 607 ft | 101 kts | 328° |
| 2026-02-17 04:14 | 35.51955 | 139.72545 | 621 ft | 93 kts | 352° |
| 2026-02-17 04:14 | 35.52569 | 139.72679 | 686 ft | 90 kts | 18° |
| 2026-02-17 04:14 | 35.53132 | 139.73004 | 710 ft | 89 kts | 23° |
| 2026-02-17 04:15 | 35.54130 | 139.73920 | 673 ft | 89 kts | 50° |
| 2026-02-17 04:15 | 35.54398 | 139.74598 | 649 ft | 90 kts | 62° |
| 2026-02-17 04:15 | 35.54721 | 139.75250 | 548 ft | 89 kts | 38° |
| 2026-02-17 04:15 | 35.55209 | 139.75662 | 394 ft | 78 kts | 30° |
| 2026-02-17 04:16 | 35.55584 | 139.75926 | 220 ft | 47 kts | 7° |
| 2026-02-17 04:16 | 35.55789 | 139.75815 | 114 ft | 27 kts | 319° |
| 2026-02-17 04:16 | 35.55871 | 139.75720 | 43 ft | 9 kts | 324° |
| 2026-02-17 04:16 | 35.55898 | 139.75695 | 27 ft | 9 kts | 290° |
| 2026-02-17 04:17 | 35.55897 | 139.75600 | 22 ft | 5 kts | 286° |
| 2026-02-17 04:17 | 35.55897 | 139.75586 | 19 ft | 0 kts | 61° |